KAOO 170353Z AUTO 03003KT 10SM OVC033 21/17 A3010 RMK AO2 SLP182 T02060167